Accueil
METAR-TAF:

METAR-TAF

Aéroports :

Bolzano, Italie

latitude: 46-28N, longitude: 011-20E, altitude: 262 m

Observation

Le bulletin a été fait il y a 1 heure et 6 minutes, à 13:50 UTC
Vent 3 kt de nord-ouest
Température 2°C
Humidité 69%
Pression 1015 hPa
Visibilité 10 km ou plus
Nuages épars à une hauteur de 9000 ft
Nuages fragmentés à une hauteur de 11000 ft

METAR: LIPB 011350Z 32003KT 9999 SCT090 BKN110 02/M03 Q1015 RMK MON LIB

Heure: 15:56 (14:56 UTC)

Prévision

Le bulletin a été fait il y a 3 heures et 56 minutes, à 11:00 UTC
Prévision valable du 01 à 12 UTC au 02 à 12 UTC
Vent 5 kt de direction variable
Visibilité 10 km ou plus
Nuages épars à une hauteur de 2500 ft
Evoluant progressivement
du 02 à 06 UTC au 02 à 08 UTC
Visibilité: 0800 m
neige

TAF: LIPB 011100Z 0112/0212 VRB05KT 9999 SCT025 BECMG 0206/0208 0800 SN

Observations et prévisions météorologiques de plus de 4000 aéroports (messages METAR et TAF).

Les stations disponibles sont représentées par des disques jaunes et rouges sur la carte.

Passer la souris dessus pour voir le nom de la station.

Cliquer dessus pour voir les observations et prévisions météorologiques.

Pour changer de carte: cliquez sur les boutons verts avec une croix noire pour zoomer, sur le bouton vert avec un tiret pour effectuer un zoom arrière, ou sur les flèches vertes pour les cartes adjacentes.


METAR-TAF: